createdAt,value
2022-12-08T00:03:04.548Z,16.10
2022-12-08T00:08:28.869Z,9.90
2022-12-08T00:13:31.921Z,16.50
2022-12-08T00:18:35.255Z,17.00
2022-12-08T00:28:40.659Z,11.00
2022-12-08T00:33:43.448Z,13.00
2022-12-08T00:38:48.173Z,13.90
2022-12-08T00:43:50.917Z,11.40
2022-12-08T00:48:53.651Z,13.30
2022-12-08T00:53:56.571Z,12.20
2022-12-08T00:59:00.094Z,14.90
2022-12-08T01:04:07.733Z,13.40
2022-12-08T01:09:12.639Z,14.70
2022-12-08T01:14:15.521Z,14.80
2022-12-08T01:19:18.708Z,14.40
2022-12-08T01:29:24.377Z,6.70
2022-12-08T01:34:27.100Z,13.70
2022-12-08T01:39:30.742Z,10.00
2022-12-08T01:44:33.407Z,12.00
2022-12-08T01:49:37.000Z,10.00
2022-12-08T01:54:51.560Z,10.00
2022-12-08T02:00:01.541Z,9.80
2022-12-08T02:05:06.501Z,14.10
2022-12-08T02:10:12.426Z,12.90
2022-12-08T02:15:15.790Z,10.70
2022-12-08T02:20:37.339Z,14.70
2022-12-08T02:25:54.666Z,12.20
2022-12-08T02:31:32.604Z,11.70
2022-12-08T02:37:09.658Z,9.70
2022-12-08T02:42:21.205Z,15.80
2022-12-08T02:47:26.872Z,11.90
2022-12-08T02:52:29.609Z,12.90
2022-12-08T02:57:35.073Z,18.10
2022-12-08T03:02:50.107Z,19.20
2022-12-08T03:08:22.581Z,19.40
2022-12-08T03:13:33.003Z,26.00
2022-12-08T03:18:43.085Z,16.20
2022-12-08T03:23:49.440Z,10.80
2022-12-08T03:28:52.492Z,19.20
2022-12-08T03:33:58.612Z,12.60
2022-12-08T03:39:02.219Z,15.50
2022-12-08T03:44:05.230Z,13.10
2022-12-08T03:49:08.018Z,16.20
2022-12-08T03:54:13.320Z,16.30
2022-12-08T03:59:16.218Z,15.70
2022-12-08T04:04:19.159Z,19.40
2022-12-08T04:09:21.968Z,12.70
2022-12-08T04:14:24.711Z,19.50
2022-12-08T04:19:27.539Z,12.30
2022-12-08T04:24:30.283Z,14.40
2022-12-08T04:29:33.036Z,18.80
2022-12-08T04:34:35.768Z,19.10
2022-12-08T04:39:38.513Z,16.80
2022-12-08T04:44:41.277Z,15.20
2022-12-08T04:49:44.000Z,17.40
2022-12-08T04:54:46.758Z,15.80
2022-12-08T04:59:49.479Z,14.00
2022-12-08T05:04:52.250Z,13.20
2022-12-08T05:09:55.101Z,15.30
2022-12-08T05:14:57.812Z,15.80
2022-12-08T05:20:01.162Z,13.20
2022-12-08T05:25:04.433Z,19.20
2022-12-08T05:30:07.679Z,10.80
2022-12-08T05:35:10.672Z,14.80
2022-12-08T05:40:13.533Z,17.60
2022-12-08T05:45:16.307Z,15.00
2022-12-08T05:50:19.115Z,12.70
2022-12-08T05:55:21.824Z,13.90
2022-12-08T06:00:24.677Z,11.20
2022-12-08T06:05:27.422Z,15.10
2022-12-08T06:10:30.177Z,10.90
2022-12-08T06:15:35.120Z,11.00
2022-12-08T06:20:37.859Z,12.60
2022-12-08T06:25:40.590Z,10.60
2022-12-08T06:30:43.293Z,12.30
2022-12-08T06:35:46.068Z,12.30
2022-12-08T06:40:56.217Z,12.20
2022-12-08T06:46:00.192Z,10.70
2022-12-08T06:51:08.500Z,12.50
2022-12-08T06:56:11.938Z,11.00
2022-12-08T07:01:15.194Z,15.40
2022-12-08T07:11:25.486Z,6.90
2022-12-08T07:16:28.367Z,8.10
2022-12-08T07:21:31.489Z,7.20
2022-12-08T07:26:34.244Z,9.70
2022-12-08T07:31:39.237Z,9.10
2022-12-08T07:36:42.179Z,11.30
2022-12-08T07:41:44.906Z,17.90
2022-12-08T07:46:51.130Z,12.00
2022-12-08T07:51:53.865Z,6.80
2022-12-08T07:57:01.854Z,12.90
2022-12-08T08:02:23.351Z,14.20
2022-12-08T08:07:28.194Z,13.60
2022-12-08T08:12:32.323Z,12.20
2022-12-08T08:17:39.257Z,13.50
2022-12-08T08:22:42.256Z,24.80
2022-12-08T08:27:45.070Z,13.70
2022-12-08T08:32:49.106Z,14.50
2022-12-08T08:37:52.021Z,20.30
2022-12-08T08:42:54.796Z,14.90
2022-12-08T08:47:57.686Z,16.30
2022-12-08T08:53:00.415Z,15.10
2022-12-08T08:58:03.144Z,16.80
2022-12-08T09:03:05.928Z,14.10
2022-12-08T09:08:08.919Z,11.00
2022-12-08T09:13:12.139Z,13.70
2022-12-08T09:18:14.961Z,13.10
2022-12-08T09:23:18.202Z,11.30
2022-12-08T09:33:25.367Z,11.20
2022-12-08T09:38:28.112Z,13.80
2022-12-08T09:43:52.588Z,14.10
2022-12-08T09:48:58.549Z,15.70
2022-12-08T09:54:12.168Z,17.30
2022-12-08T09:59:30.532Z,12.70
2022-12-08T10:04:38.630Z,14.70
2022-12-08T10:10:00.975Z,17.30
2022-12-08T10:15:29.049Z,12.10
2022-12-08T10:20:41.400Z,15.50
2022-12-08T10:25:56.600Z,16.80
2022-12-08T10:30:59.673Z,13.20
2022-12-08T10:36:04.986Z,13.60
2022-12-08T10:41:14.978Z,14.60
2022-12-08T10:46:25.863Z,14.50
2022-12-08T10:51:34.444Z,18.80
2022-12-08T10:56:37.138Z,24.10
2022-12-08T11:01:41.867Z,15.50
2022-12-08T11:06:48.445Z,20.90
2022-12-08T11:12:08.320Z,23.00
2022-12-08T11:17:26.683Z,25.00
2022-12-08T11:22:42.861Z,22.50
2022-12-08T11:27:50.717Z,24.10
2022-12-08T11:33:03.425Z,21.30
2022-12-08T11:38:21.671Z,29.90
2022-12-08T11:43:34.316Z,23.20
2022-12-08T11:48:52.350Z,26.50
2022-12-08T11:54:19.185Z,18.30
2022-12-08T11:59:31.245Z,17.40
2022-12-08T12:04:37.103Z,17.60
2022-12-08T12:10:10.542Z,19.20
2022-12-08T12:15:31.622Z,14.10
2022-12-08T12:20:48.035Z,20.10
2022-12-08T12:26:02.314Z,24.30
2022-12-08T12:31:18.414Z,18.50
2022-12-08T12:36:22.416Z,18.40
2022-12-08T12:41:30.783Z,19.40
2022-12-08T12:46:33.592Z,24.80
2022-12-08T12:51:46.624Z,19.50
2022-12-08T12:57:05.684Z,24.30
2022-12-08T13:02:29.379Z,25.40
2022-12-08T13:07:41.386Z,25.10
2022-12-08T13:12:45.757Z,28.90
2022-12-08T13:17:49.480Z,30.70
2022-12-08T13:23:26.791Z,41.10
2022-12-08T13:28:31.251Z,31.10
2022-12-08T13:33:40.494Z,35.70
2022-12-08T13:38:45.892Z,26.60
2022-12-08T13:44:57.188Z,32.90
2022-12-08T13:56:30.671Z,24.00
2022-12-08T14:00:17.678Z,32.50
2022-12-08T14:05:40.651Z,30.70
2022-12-08T14:10:53.158Z,30.50
2022-12-08T14:15:56.001Z,30.70
2022-12-08T14:21:21.442Z,37.50
2022-12-08T14:26:24.792Z,31.10
2022-12-08T14:31:28.875Z,34.40
2022-12-08T14:36:33.670Z,31.00
2022-12-08T14:41:37.205Z,50.00
2022-12-08T14:47:05.717Z,38.50
2022-12-08T14:52:11.657Z,23.70
2022-12-08T14:57:15.462Z,41.00
2022-12-08T15:02:25.263Z,52.00
2022-12-08T15:07:32.677Z,40.90
2022-12-08T15:12:35.773Z,57.80
2022-12-08T15:17:43.117Z,53.00
2022-12-08T15:22:45.899Z,55.10
2022-12-08T15:27:50.732Z,37.70
2022-12-08T15:32:56.129Z,51.60
2022-12-08T15:37:58.887Z,57.00
2022-12-08T15:43:01.617Z,39.50
2022-12-08T15:48:04.756Z,48.80
2022-12-08T15:53:10.446Z,57.40
2022-12-08T16:09:31.391Z,65.60
2022-12-08T16:15:46.769Z,37.10
2022-12-08T16:19:57.960Z,67.10
2022-12-08T16:30:21.678Z,50.10
2022-12-08T16:35:24.519Z,46.00
2022-12-08T16:40:27.443Z,48.80
2022-12-08T16:45:30.576Z,75.60
2022-12-08T16:55:37.891Z,71.00
2022-12-08T17:00:41.113Z,76.40
2022-12-08T17:11:06.577Z,39.00
2022-12-08T17:16:17.827Z,71.10
2022-12-08T17:21:20.729Z,71.20
2022-12-08T17:26:23.980Z,67.30
2022-12-08T17:36:33.697Z,43.60
2022-12-08T17:41:36.833Z,63.10
2022-12-08T17:46:43.414Z,100.70
2022-12-08T17:51:49.986Z,67.90
2022-12-08T17:56:53.173Z,53.60
2022-12-08T18:01:57.610Z,57.10
2022-12-08T18:07:01.491Z,51.70
2022-12-08T18:12:04.563Z,44.40
2022-12-08T18:17:07.360Z,48.70
2022-12-08T18:22:11.193Z,47.80
2022-12-08T18:27:14.090Z,47.80
2022-12-08T18:32:16.858Z,44.10
2022-12-08T18:37:20.188Z,56.70
2022-12-08T18:42:23.133Z,53.40
2022-12-08T18:47:26.023Z,57.80
2022-12-08T18:52:32.342Z,60.10
2022-12-08T18:57:41.610Z,56.30
2022-12-08T19:02:45.128Z,45.00
2022-12-08T19:07:48.167Z,47.60
2022-12-08T19:12:52.541Z,50.60
2022-12-08T19:17:55.327Z,35.60
2022-12-08T19:22:58.033Z,41.40
2022-12-08T19:28:00.792Z,35.60
2022-12-08T19:33:03.636Z,53.20
2022-12-08T19:38:06.437Z,44.50
2022-12-08T19:43:39.204Z,44.20
2022-12-08T19:48:41.984Z,57.50
2022-12-08T19:53:47.759Z,49.30
2022-12-08T19:58:50.861Z,48.00
2022-12-08T20:03:53.944Z,43.70
2022-12-08T20:08:56.765Z,57.80
2022-12-08T20:13:59.512Z,44.70
2022-12-08T20:19:03.103Z,24.80
2022-12-08T20:24:06.161Z,49.90
2022-12-08T20:29:09.196Z,43.40
2022-12-08T20:34:15.471Z,48.40
2022-12-08T20:39:18.900Z,50.50
2022-12-08T20:44:21.962Z,38.10
2022-12-08T20:49:28.318Z,40.30
2022-12-08T20:54:34.334Z,42.20
2022-12-08T20:59:37.293Z,45.20
2022-12-08T21:04:40.207Z,33.00
2022-12-08T21:14:46.656Z,49.70
2022-12-08T21:19:49.645Z,62.60
2022-12-08T21:24:52.414Z,48.00
2022-12-08T21:29:55.274Z,38.70
2022-12-08T21:34:58.069Z,72.30
2022-12-08T21:40:01.177Z,37.30
2022-12-08T21:45:04.523Z,31.60
2022-12-08T21:50:08.436Z,63.20
2022-12-08T21:55:13.043Z,55.30
2022-12-08T22:00:17.319Z,31.20
2022-12-08T22:05:20.292Z,26.20
2022-12-08T22:10:23.807Z,36.00
2022-12-08T22:15:29.782Z,54.80
2022-12-08T22:20:32.761Z,49.30
2022-12-08T22:25:35.496Z,58.20
2022-12-08T22:30:39.712Z,45.20
2022-12-08T22:35:42.576Z,38.20
2022-12-08T22:40:45.359Z,61.80
2022-12-08T22:45:48.593Z,56.70
2022-12-08T22:55:54.619Z,34.00
2022-12-08T23:06:00.661Z,66.90
2022-12-08T23:11:03.768Z,49.80
2022-12-08T23:16:08.920Z,46.60
2022-12-08T23:21:15.273Z,41.00
2022-12-08T23:26:24.820Z,63.30
2022-12-08T23:31:28.132Z,59.90
2022-12-08T23:36:31.994Z,53.90
2022-12-08T23:41:35.269Z,54.70
2022-12-08T23:51:41.556Z,49.80
2022-12-08T23:56:44.487Z,44.70
